Avent, Mississippi
Current Conditions -  °F | °C
As of 4:53 PM on Saturday 25 Oct 2014 (Local Time) from KHBG Reporting Station
Clear Clear  
Wind Chill: 80°   Ceiling: Unl
Heat Index: 81°   Visibility: 10mi
Dew Point: 59°   Wind: 6mph
Humidity: 48%   Direction: 340°NNW
Pressure: 30.06"   Gusts: NA
Location:  31.0532°N, 88.8084°W
Report Text: KHBG 252153Z AUTO 34005KT 10SM CLR 27/15 A3006 RMK AO2 SLP177 T02670150
Loading
Personal Weather Stations






























Interactive Weather Map
Tropical Storm Tracking
New forecast layout! Learn more

10-Day Weather Forecast

Advertisements
Track Severe Weather on mobile